West Concord, Minnesota
Current Conditions -  °F | °C
As of 3:34 AM on Thursday 23 Oct 2014 (Local Time) from KTOB Reporting Station
Overcast Overcast  
Wind Chill: 52°   Ceiling: 6000
Heat Index: 52°   Visibility: 10mi
Dew Point: 43°   Wind: 15mph
Humidity: 71%   Direction: 190°S
Pressure: 30.03"   Gusts: 21mph
Location:  44.15°N, 92.9°W
Report Text: KTOB 230834Z AUTO 19013G18KT 10SM SCT037 BKN060 OVC070 11/06 A3003 RMK AO2
Loading
Personal Weather Stations






























Interactive Weather Map
Tropical Storm Tracking
New forecast layout! Learn more

10-Day Weather Forecast

Advertisements
Track Severe Weather on mobile